CFG4HA EDLW-LEPA
Flight info
| Callsign | CFG4HA |
|---|---|
| Flight time | N/A |
| Altitude | 32000 |
| Route | BAMSU2U BAMSU M170 NVO Y841 KENUM DCT GESLO DCT LIMGO/N0452F330 DCT SUTAL DCT GTQ DCT POGOL DCT LASAT DCT MOROK DCT GILIR DCT GEVEA DCT INCUS DCT BALSI DCT RETNO/N0453F350 DCT TUPOX DCT MTG DCT DIVKO DCT VATIR N852 VERSO DCT LUNIK |
| Aircraft | A321/M-SDE3FGHIJ1LORVWXYZ/LB1D1 |
Departure
| Time | 2026-05-04 16:44 |
|---|---|
| Airport | Dortmund Airport (EDLW) |
Arrival
| Time | N/A |
|---|---|
| Airport | Palma de Mallorca Airport (LEPA) |
| Time | Latitude | Longitude | Altitude | Speed | Heading |
|---|---|---|---|---|---|
| 2026-05-04 16:18 | 51.51468 | 7.61118 | 434 ft | 0 kts | 144° |
| 2026-05-04 16:34 | 51.51495 | 7.61086 | 434 ft | 4 kts | 138° |
| 2026-05-04 16:34 | 51.51509 | 7.61058 | 419 ft | 4 kts | 84° |
| 2026-05-04 16:35 | 51.51512 | 7.61052 | 434 ft | 0 kts | 8° |
| 2026-05-04 16:37 | 51.51547 | 7.61049 | 431 ft | 6 kts | 348° |
| 2026-05-04 16:37 | 51.51593 | 7.61083 | 429 ft | 11 kts | 55° |
| 2026-05-04 16:37 | 51.51674 | 7.61319 | 422 ft | 16 kts | 62° |
| 2026-05-04 16:38 | 51.51785 | 7.61628 | 426 ft | 17 kts | 62° |
| 2026-05-04 16:39 | 51.51983 | 7.62186 | 411 ft | 18 kts | 61° |
| 2026-05-04 16:39 | 51.52101 | 7.62529 | 412 ft | 17 kts | 60° |
| 2026-05-04 16:40 | 51.52127 | 7.62604 | 412 ft | 0 kts | 60° |
| 2026-05-04 16:40 | 51.52136 | 7.62627 | 412 ft | 1 kts | 60° |
| 2026-05-04 16:41 | 51.52136 | 7.62628 | 412 ft | 0 kts | 60° |
| 2026-05-04 16:42 | 51.52137 | 7.62630 | 412 ft | 1 kts | 60° |
| 2026-05-04 16:43 | 51.52186 | 7.62757 | 409 ft | 12 kts | 45° |
| 2026-05-04 16:43 | 51.52316 | 7.62701 | 414 ft | 13 kts | 308° |
| 2026-05-04 16:43 | 51.52316 | 7.62599 | 408 ft | 0 kts | 245° |
| 2026-05-04 16:44 | 51.51109 | 7.59057 | 1439 ft | 149 kts | 239° |
| 2026-05-04 16:45 | 51.50022 | 7.56013 | 2423 ft | 175 kts | 238° |
| 2026-05-04 16:46 | 51.47846 | 7.49973 | 2892 ft | 244 kts | 238° |
| 2026-05-04 16:46 | 51.45840 | 7.45345 | 4286 ft | 257 kts | 232° |
| 2026-05-04 16:47 | 51.43633 | 7.40704 | 5537 ft | 264 kts | 231° |
| 2026-05-04 16:47 | 51.41397 | 7.35996 | 7035 ft | 269 kts | 231° |
| 2026-05-04 16:48 | 51.36705 | 7.31484 | 9100 ft | 275 kts | 182° |
| 2026-05-04 16:48 | 51.34756 | 7.31417 | 9807 ft | 278 kts | 181° |
| 2026-05-04 16:49 | 51.30735 | 7.31298 | 10457 ft | 309 kts | 182° |
| 2026-05-04 16:49 | 51.26137 | 7.31142 | 10820 ft | 346 kts | 182° |
| 2026-05-04 16:50 | 51.21318 | 7.30410 | 11966 ft | 355 kts | 196° |
| 2026-05-04 16:50 | 51.17019 | 7.26507 | 13232 ft | 364 kts | 223° |
| 2026-05-04 16:51 | 51.13847 | 7.20114 | 14384 ft | 372 kts | 232° |
| 2026-05-04 16:51 | 51.12301 | 7.16792 | 14939 ft | 374 kts | 232° |
| 2026-05-04 16:51 | 51.09171 | 7.10112 | 16018 ft | 379 kts | 232° |
| 2026-05-04 16:52 | 51.05987 | 7.03347 | 17065 ft | 385 kts | 232° |
| 2026-05-04 16:52 | 51.04382 | 6.99936 | 17567 ft | 387 kts | 232° |
| 2026-05-04 16:53 | 51.01105 | 6.92987 | 18508 ft | 391 kts | 232° |
| 2026-05-04 16:53 | 50.96070 | 6.82818 | 19711 ft | 396 kts | 223° |
| 2026-05-04 16:54 | 50.94014 | 6.79911 | 20107 ft | 397 kts | 220° |
| 2026-05-04 16:55 | 50.85640 | 6.68334 | 21675 ft | 404 kts | 220° |
| 2026-05-04 16:55 | 50.81952 | 6.61577 | 22480 ft | 411 kts | 238° |
| 2026-05-04 16:56 | 50.79654 | 6.53211 | 23310 ft | 418 kts | 246° |
| 2026-05-04 16:56 | 50.76404 | 6.40312 | 24404 ft | 424 kts | 246° |
| 2026-05-04 16:57 | 50.75312 | 6.35996 | 24731 ft | 426 kts | 246° |
| 2026-05-04 16:57 | 50.72263 | 6.28094 | 25374 ft | 423 kts | 226° |
| 2026-05-04 16:58 | 50.64725 | 6.21174 | 26223 ft | 429 kts | 194° |
| 2026-05-04 16:58 | 50.61814 | 6.20097 | 26548 ft | 429 kts | 194° |
| 2026-05-04 16:59 | 50.55982 | 6.17947 | 27151 ft | 432 kts | 194° |
| 2026-05-04 17:00 | 50.44234 | 6.13684 | 28391 ft | 433 kts | 194° |
| 2026-05-04 17:00 | 50.35520 | 6.10485 | 29681 ft | 425 kts | 194° |